Kingwood, Texas
Current Conditions -  °F | °C
As of 2:53 PM on Thursday 23 Oct 2014 (Local Time) from KIAH Reporting Station
Scattered Clouds Scattered Clouds  
Wind Chill: 79°   Ceiling: Unl
Heat Index: 79°   Visibility: 10mi
Dew Point: 54°   Wind: 13mph
Humidity: 42%   Direction: 50°NE
Pressure: 30.07"   Gusts: NA
Location:  30.05°N, 95.18°W
Report Text: KIAH 231953Z 05011KT 10SM SCT140 26/12 A3007 RMK AO2 SLP182 T02610122
Loading
Personal Weather Stations






























Interactive Weather Map
Tropical Storm Tracking
New forecast layout! Learn more

10-Day Weather Forecast

Advertisements
Track Severe Weather on mobile